sensor_id;sensor_type;location;lat;lon;timestamp;temperature;humidity
64493;DHT22;50868;24.150;-110.320;2023-06-22T17:26:08;34.30;92.10
64493;DHT22;50868;24.150;-110.320;2023-06-22T17:28:53;33.50;99.90
64493;DHT22;50868;24.150;-110.320;2023-06-22T17:31:40;33.40;99.60
64493;DHT22;50868;24.150;-110.320;2023-06-22T17:34:14;33.50;99.90
64493;DHT22;50868;24.150;-110.320;2023-06-22T17:36:42;33.20;99.90
64493;DHT22;50868;24.150;-110.320;2023-06-22T17:39:13;33.10;99.90
64493;DHT22;50868;24.150;-110.320;2023-06-22T17:41:43;33.00;99.70
64493;DHT22;50868;24.150;-110.320;2023-06-22T17:44:10;33.00;99.90
64493;DHT22;50868;24.150;-110.320;2023-06-22T17:46:42;33.00;99.90
64493;DHT22;50868;24.150;-110.320;2023-06-22T17:49:10;33.00;99.90
64493;DHT22;50868;24.150;-110.320;2023-06-22T17:51:41;33.00;99.90
64493;DHT22;50868;24.150;-110.320;2023-06-22T17:54:09;33.00;99.90
64493;DHT22;50868;24.150;-110.320;2023-06-22T17:56:36;33.10;99.90
64493;DHT22;50868;24.150;-110.320;2023-06-22T17:59:03;33.40;99.90
64493;DHT22;50868;24.150;-110.320;2023-06-22T18:01:37;33.30;99.90
64493;DHT22;50868;24.150;-110.320;2023-06-22T18:04:12;33.20;99.90
64493;DHT22;50868;24.150;-110.320;2023-06-22T18:06:43;33.20;99.90
64493;DHT22;50868;24.150;-110.320;2023-06-22T18:09:12;33.50;99.90
64493;DHT22;50868;24.150;-110.320;2023-06-22T18:11:50;33.70;99.90
64493;DHT22;50868;24.150;-110.320;2023-06-22T18:14:18;33.70;99.90
64493;DHT22;50868;24.150;-110.320;2023-06-22T18:16:49;33.70;99.90
64493;DHT22;50868;24.150;-110.320;2023-06-22T18:19:18;33.50;99.90
64493;DHT22;50868;24.150;-110.320;2023-06-22T18:21:47;33.80;99.90
64493;DHT22;50868;24.150;-110.320;2023-06-22T18:24:18;33.60;99.90
64493;DHT22;50868;24.150;-110.320;2023-06-22T18:26:46;33.30;99.90
64493;DHT22;50868;24.150;-110.320;2023-06-22T18:29:13;33.30;99.90
64493;DHT22;50868;24.150;-110.320;2023-06-22T18:31:40;33.30;99.90
64493;DHT22;50868;24.150;-110.320;2023-06-22T18:34:11;33.50;99.90
64493;DHT22;50868;24.150;-110.320;2023-06-22T18:36:42;33.80;99.90
64493;DHT22;50868;24.150;-110.320;2023-06-22T18:39:10;33.30;99.90
64493;DHT22;50868;24.150;-110.320;2023-06-22T18:41:40;33.30;99.90
64493;DHT22;50868;24.150;-110.320;2023-06-22T18:44:32;33.40;99.90
64493;DHT22;50868;24.150;-110.320;2023-06-22T18:47:03;32.90;99.90
64493;DHT22;50868;24.150;-110.320;2023-06-22T18:49:33;32.80;99.90
64493;DHT22;50868;24.150;-110.320;2023-06-22T18:52:18;32.90;99.90
64493;DHT22;50868;24.150;-110.320;2023-06-22T18:54:50;32.90;99.90
64493;DHT22;50868;24.150;-110.320;2023-06-22T18:57:27;32.80;99.90
64493;DHT22;50868;24.150;-110.320;2023-06-22T19:05:16;32.30;99.90
64493;DHT22;50868;24.150;-110.320;2023-06-22T19:16:08;32.50;99.90
64493;DHT22;50868;24.150;-110.320;2023-06-22T19:18:40;32.30;99.90
64493;DHT22;50868;24.150;-110.320;2023-06-22T19:21:12;32.50;99.90
64493;DHT22;50868;24.150;-110.320;2023-06-22T19:23:42;32.90;99.90
64493;DHT22;50868;24.150;-110.320;2023-06-22T19:26:12;32.30;99.90
64493;DHT22;50868;24.150;-110.320;2023-06-22T19:28:50;31.60;99.90
64493;DHT22;50868;24.150;-110.320;2023-06-22T19:31:22;31.40;99.90
64493;DHT22;50868;24.150;-110.320;2023-06-22T19:34:05;31.30;99.90
64493;DHT22;50868;24.150;-110.320;2023-06-22T19:36:33;31.20;99.90
64493;DHT22;50868;24.150;-110.320;2023-06-22T19:39:02;31.70;99.90
64493;DHT22;50868;24.150;-110.320;2023-06-22T19:41:30;32.00;99.90
64493;DHT22;50868;24.150;-110.320;2023-06-22T19:43:57;32.30;99.90
64493;DHT22;50868;24.150;-110.320;2023-06-22T19:46:29;32.70;99.90
64493;DHT22;50868;24.150;-110.320;2023-06-22T19:49:00;33.00;99.90
64493;DHT22;50868;24.150;-110.320;2023-06-22T19:51:36;33.40;99.90
64493;DHT22;50868;24.150;-110.320;2023-06-22T19:54:09;34.10;99.90
64493;DHT22;50868;24.150;-110.320;2023-06-22T19:56:43;34.10;99.90
64493;DHT22;50868;24.150;-110.320;2023-06-22T19:59:14;34.20;99.90
64493;DHT22;50868;24.150;-110.320;2023-06-22T20:01:46;34.70;99.90
64493;DHT22;50868;24.150;-110.320;2023-06-22T20:04:14;35.20;99.90
64493;DHT22;50868;24.150;-110.320;2023-06-22T20:06:59;35.40;99.90
64493;DHT22;50868;24.150;-110.320;2023-06-22T20:09:26;35.50;99.90
64493;DHT22;50868;24.150;-110.320;2023-06-22T20:11:57;35.10;99.90
64493;DHT22;50868;24.150;-110.320;2023-06-22T20:14:30;35.60;99.90
64493;DHT22;50868;24.150;-110.320;2023-06-22T20:16:58;35.70;99.90
64493;DHT22;50868;24.150;-110.320;2023-06-22T20:19:37;35.50;99.90
64493;DHT22;50868;24.150;-110.320;2023-06-22T20:22:09;35.30;99.90
64493;DHT22;50868;24.150;-110.320;2023-06-22T20:24:37;35.50;99.90
64493;DHT22;50868;24.150;-110.320;2023-06-22T20:27:11;35.70;99.90
64493;DHT22;50868;24.150;-110.320;2023-06-22T20:29:38;35.90;99.90
64493;DHT22;50868;24.150;-110.320;2023-06-22T20:34:45;35.80;99.90
64493;DHT22;50868;24.150;-110.320;2023-06-22T20:37:15;35.80;99.90
64493;DHT22;50868;24.150;-110.320;2023-06-22T20:39:45;35.60;99.90
64493;DHT22;50868;24.150;-110.320;2023-06-22T20:42:12;36.00;99.90
64493;DHT22;50868;24.150;-110.320;2023-06-22T20:44:39;36.00;99.90
64493;DHT22;50868;24.150;-110.320;2023-06-22T20:47:06;36.00;99.90
64493;DHT22;50868;24.150;-110.320;2023-06-22T20:49:36;36.50;99.90
64493;DHT22;50868;24.150;-110.320;2023-06-22T20:52:04;36.00;99.90
64493;DHT22;50868;24.150;-110.320;2023-06-22T20:54:32;36.20;99.90
64493;DHT22;50868;24.150;-110.320;2023-06-22T20:57:00;35.90;99.90
64493;DHT22;50868;24.150;-110.320;2023-06-22T20:59:27;35.90;99.90
64493;DHT22;50868;24.150;-110.320;2023-06-22T21:01:54;36.50;99.80
64493;DHT22;50868;24.150;-110.320;2023-06-22T21:04:23;36.90;99.60
64493;DHT22;50868;24.150;-110.320;2023-06-22T21:06:50;36.70;98.80
64493;DHT22;50868;24.150;-110.320;2023-06-22T21:09:20;37.20;98.10
64493;DHT22;50868;24.150;-110.320;2023-06-22T21:11:47;36.90;99.50
64493;DHT22;50868;24.150;-110.320;2023-06-22T21:14:14;36.60;99.90
64493;DHT22;50868;24.150;-110.320;2023-06-22T21:16:41;35.50;99.90
64493;DHT22;50868;24.150;-110.320;2023-06-22T21:19:08;35.00;98.40
64493;DHT22;50868;24.150;-110.320;2023-06-22T21:21:36;35.10;99.90
64493;DHT22;50868;24.150;-110.320;2023-06-22T21:27:07;34.80;99.90
64493;DHT22;50868;24.150;-110.320;2023-06-22T21:29:35;35.00;99.90
64493;DHT22;50868;24.150;-110.320;2023-06-22T21:32:02;34.70;99.90
64493;DHT22;50868;24.150;-110.320;2023-06-22T21:34:29;34.90;99.90
64493;DHT22;50868;24.150;-110.320;2023-06-22T21:36:56;34.90;98.80
64493;DHT22;50868;24.150;-110.320;2023-06-22T21:39:23;35.10;99.40
64493;DHT22;50868;24.150;-110.320;2023-06-22T21:41:50;34.90;97.40
64493;DHT22;50868;24.150;-110.320;2023-06-22T21:44:17;35.20;97.20
64493;DHT22;50868;24.150;-110.320;2023-06-22T21:46:44;35.70;97.60
64493;DHT22;50868;24.150;-110.320;2023-06-22T21:49:11;35.70;94.60
64493;DHT22;50868;24.150;-110.320;2023-06-22T21:51:38;35.50;97.90
64493;DHT22;50868;24.150;-110.320;2023-06-22T21:54:05;35.60;97.90
64493;DHT22;50868;24.150;-110.320;2023-06-22T21:56:32;35.80;98.00
64493;DHT22;50868;24.150;-110.320;2023-06-22T21:58:59;37.30;74.30
64493;DHT22;50868;24.150;-110.320;2023-06-22T22:01:26;37.00;92.20
64493;DHT22;50868;24.150;-110.320;2023-06-22T22:03:53;37.20;78.80
64493;DHT22;50868;24.150;-110.320;2023-06-22T22:06:21;37.70;79.50
64493;DHT22;50868;24.150;-110.320;2023-06-22T22:08:50;38.60;65.00
64493;DHT22;50868;24.150;-110.320;2023-06-22T22:11:17;39.00;64.10
64493;DHT22;50868;24.150;-110.320;2023-06-22T22:13:44;39.50;61.10
64493;DHT22;50868;24.150;-110.320;2023-06-22T22:16:11;40.00;56.90
64493;DHT22;50868;24.150;-110.320;2023-06-22T22:18:38;40.30;54.60
